Megan T Miller — WCW9003 — position and weather

sailwx.info

Track history (hours):
 
Tides and Currents Weather Stations Pressure Air Temp Water Temp Dewpoint Dewpoint Depression Visibility Wind Speed Wind Dir Waves Ship Positions

Megan T Miller

Owner: MILLER MARINE SERVICES INC, PORT JEFFERSON, NY. More information available from US FCC via Universal Licensing System and Coast Guard Vessel Documentation Center.

Last reported at 2014-Dec-21 12:03 UTC. Time now 2014-Dec-21 12:51 UTC.
Position N 40°29' W 073°60'.

Length 18 m.

MMSI: 338104509.

Date/timePositionNaut miles runAvg speedWind from/ knotsBaromVisibWave heightAir tempDewpointWater temp
2014-Dec-21 12:03N 40°29' W 073°60'0 0.0
2014-Dec-21 11:18N 40°29' W 073°60'0 0.0
2014-Dec-21 10:26N 40°29' W 073°60'0 0.0
2014-Dec-21 09:21N 40°29' W 073°60'0 0.0
2014-Dec-21 08:28N 40°29' W 073°60'0 0.0
2014-Dec-21 06:18N 40°29' W 073°60'0 0.0
2014-Dec-21 05:30N 40°29' W 073°60'0 0.0
2014-Dec-21 04:33N 40°29' W 073°60'0 0.0
2014-Dec-21 03:33N 40°29' W 073°60'0 0.0
2014-Dec-21 02:30N 40°29' W 073°60'0 0.0
2014-Dec-21 01:32N 40°29' W 073°60'0 0.0
2014-Dec-21 00:25N 40°29' W 073°60'0 0.0
2014-Dec-20 23:32N 40°29' W 073°60'0 0.0
2014-Dec-20 22:20N 40°29' W 073°60'0 0.0
2014-Dec-20 21:33N 40°29' W 073°60'0 0.0
2014-Dec-20 18:27N 40°29' W 073°60'0 0.0
2014-Dec-20 17:22N 40°29' W 073°60'0 0.0
2014-Dec-20 16:25N 40°29' W 073°60'0 0.0
2014-Dec-20 15:04N 40°29' W 073°60'0 0.0
2014-Dec-20 14:19N 40°29' W 073°60'0 0.0
2014-Dec-20 13:08N 40°29' W 073°60'5 1.2
2014-Dec-20 09:17N 40°25' W 074°02'0 0.0
2014-Dec-20 06:30N 40°25' W 074°02'0 0.0
2014-Dec-20 05:33N 40°25' W 074°02'0 0.0
2014-Dec-20 02:24N 40°25' W 074°02'5 0.8
2014-Dec-19 20:23N 40°29' W 073°60'0 0.0
2014-Dec-19 19:05N 40°29' W 073°60'0 0.0
2014-Dec-19 16:22N 40°29' W 073°60'0 0.0
2014-Dec-19 15:33N 40°29' W 073°60'0 0.0
2014-Dec-19 14:31N 40°29' W 073°60'0 0.1
2014-Dec-19 13:33N 40°29' W 073°60'0 0.1
2014-Dec-19 12:33N 40°29' W 073°60'4 2.2
2014-Dec-19 10:29N 40°25' W 074°02'0 0.0
2014-Dec-18 23:12N 40°25' W 074°02'0 0.0
2014-Dec-18 07:14N 40°25' W 074°02'0 0.0
2014-Dec-18 04:12N 40°25' W 074°02'5 1.5
2014-Dec-18 01:04N 40°29' W 073°60'0 0.0
2014-Dec-17 23:15N 40°29' W 073°60'0 0.1
2014-Dec-17 21:33N 40°29' W 073°60'0 0.0
2014-Dec-17 14:31N 40°29' W 073°60'0 0.0
2014-Dec-17 12:17N 40°29' W 073°60'0 0.0
2014-Dec-17 06:16N 40°29' W 073°60'0 0.0
2014-Dec-17 05:13N 40°29' W 073°60'0 0.0
2014-Dec-17 03:25N 40°29' W 073°60'0 0.0
2014-Dec-17 02:30N 40°29' W 073°60'0 0.0
2014-Dec-17 01:32N 40°29' W 073°60'0 0.0
2014-Dec-17 00:28N 40°29' W 073°60'0 0.0
2014-Dec-16 23:23N 40°29' W 073°60'0 0.0
2014-Dec-16 22:33N 40°29' W 073°60'0 0.0
2014-Dec-16 21:31N 40°29' W 073°60'0 0.0
2014-Dec-16 20:33N 40°29' W 073°60'0 0.0
2014-Dec-16 19:33N 40°29' W 073°60'0 0.0
2014-Dec-16 18:33N 40°29' W 073°60'0 0.0
2014-Dec-16 17:31N 40°29' W 073°60'0 0.0
2014-Dec-16 16:33N 40°29' W 073°60'0 0.0
2014-Dec-16 15:29N 40°29' W 073°60'0 0.0
2014-Dec-16 14:33N 40°29' W 073°60'0 0.0
2014-Dec-16 13:32N 40°29' W 073°60'0 0.0
2014-Dec-16 12:33N 40°29' W 073°60'0 0.0
2014-Dec-16 11:26N 40°29' W 073°60'0 0.0
2014-Dec-16 10:33N 40°29' W 073°60'0 0.0
2014-Dec-16 09:11N 40°29' W 073°60'0 0.0
2014-Dec-16 08:29N 40°29' W 073°60'0 0.0
2014-Dec-16 07:19N 40°29' W 073°60'0 0.0
2014-Dec-16 06:14N 40°29' W 073°60'0 0.0
2014-Dec-16 05:33N 40°29' W 073°60'0 0.0
2014-Dec-16 03:29N 40°29' W 073°60'0 0.0
2014-Dec-16 02:32N 40°29' W 073°60'0 0.0
2014-Dec-16 01:17N 40°29' W 073°60'0 0.0
2014-Dec-16 00:26N 40°29' W 073°60'0 0.0
2014-Dec-15 23:32N 40°29' W 073°60'0 0.0
2014-Dec-15 22:13N 40°29' W 073°60'0 0.0
2014-Dec-15 21:11N 40°29' W 073°60'0 0.0
2014-Dec-15 20:30N 40°29' W 073°60'0 0.0
2014-Dec-15 17:24N 40°29' W 073°60'0 0.0
2014-Dec-15 15:26N 40°29' W 073°60'5 5.7
2014-Dec-15 14:33N 40°34' W 074°02'4 4.5
2014-Dec-15 13:33N 40°38' W 074°04'0 0.0
2014-Dec-15 12:33N 40°38' W 074°04'0 0.3
2014-Dec-15 11:33N 40°38' W 074°04'0 0.0
2014-Dec-15 10:33N 40°38' W 074°04'0 0.0
2014-Dec-15 09:33N 40°38' W 074°04'0 0.0
2014-Dec-15 08:33N 40°38' W 074°04'0 0.0
2014-Dec-15 07:33N 40°38' W 074°04'0 0.0
2014-Dec-15 06:33N 40°38' W 074°04'0 0.0
2014-Dec-15 05:33N 40°38' W 074°04'0 0.0
2014-Dec-15 04:33N 40°38' W 074°04'0 0.0
2014-Dec-15 03:33N 40°38' W 074°04'1 1.3
2014-Dec-15 02:33N 40°37' W 074°03'8 6.0
2014-Dec-15 01:13N 40°29' W 073°60'0 0.1
2014-Dec-15 00:19N 40°29' W 073°60'0 0.0
2014-Dec-14 23:25N 40°29' W 073°60'0 0.0
2014-Dec-14 22:27N 40°29' W 073°60'0 0.0
2014-Dec-14 21:23N 40°29' W 073°60'0 0.0
2014-Dec-14 20:09N 40°29' W 073°60'0 0.0
2014-Dec-14 19:32N 40°29' W 073°60'0 0.0
2014-Dec-14 18:31N 40°29' W 073°60'0 0.0
2014-Dec-14 17:30N 40°29' W 073°60'0 0.0
2014-Dec-14 16:16N 40°29' W 073°60'0 0.0
2014-Dec-14 15:20N 40°29' W 073°60'0 0.0
2014-Dec-14 14:27N 40°29' W 073°60'0 0.0
2014-Dec-14 13:07N 40°29' W 073°60'1 0.8
2014-Dec-14 12:22N 40°29' W 074°01'4 3.7
2014-Dec-14 11:14N 40°25' W 074°02'0 0.0
2014-Dec-14 09:11N 40°25' W 074°02'0 0.0
2014-Dec-14 08:27N 40°25' W 074°02'0 0.0
2014-Dec-14 07:28N 40°25' W 074°02'5 0.4
2014-Dec-13 19:16N 40°29' W 073°60'0 0.0
2014-Dec-13 17:16N 40°29' W 073°60'0 0.0
2014-Dec-13 15:13N 40°29' W 073°60'0 0.0
2014-Dec-13 10:23N 40°29' W 073°60'0 0.0
2014-Dec-13 08:22N 40°29' W 073°60'0 0.0
2014-Dec-13 05:27N 40°29' W 073°60'0 0.0
2014-Dec-13 03:23N 40°29' W 073°60'0 0.0
2014-Dec-13 02:06N 40°29' W 073°60'0 0.0
2014-Dec-13 01:26N 40°29' W 073°60'0 0.0
2014-Dec-13 00:14N 40°29' W 073°60'0 0.0
2014-Dec-12 23:31N 40°29' W 073°60'0 0.0
2014-Dec-12 20:09N 40°29' W 073°60'0 0.0
2014-Dec-12 19:16N 40°29' W 073°60'0 0.0
2014-Dec-12 18:27N 40°29' W 073°60'0 0.0
2014-Dec-12 17:15N 40°29' W 073°60'0 0.0
2014-Dec-12 14:25N 40°29' W 073°60'1 0.3
2014-Dec-12 12:11N 40°29' W 074°01'1 0.0
2014-Dec-11 20:06N 40°29' W 073°60'0 0.0
2014-Dec-11 19:20N 40°29' W 073°60'0 0.0
2014-Dec-11 16:10N 40°29' W 073°60'0 0.0
2014-Dec-11 14:24N 40°29' W 073°60'  
Track history (hours):
 
Tides and Currents Weather Stations Pressure Air Temp Water Temp Dewpoint Dewpoint Depression Visibility Wind Speed Wind Dir Waves Ship Positions

Megan T Miller

Owner: MILLER MARINE SERVICES INC, PORT JEFFERSON, NY. More information available from US FCC via Universal Licensing System and Coast Guard Vessel Documentation Center.

Last reported at 2014-Dec-21 12:03 UTC. Time now 2014-Dec-21 12:51 UTC.
Position N 40°29' W 073°60'.

Length 18 m.

MMSI: 338104509.

Date/timePositionNaut miles runAvg speedWind from/ knotsBaromVisibWave heightAir tempDewpointWater temp
2014-Dec-21 12:03N 40°29' W 073°60'0 0.0
2014-Dec-21 11:18N 40°29' W 073°60'0 0.0
2014-Dec-21 10:26N 40°29' W 073°60'0 0.0
2014-Dec-21 09:21N 40°29' W 073°60'0 0.0
2014-Dec-21 08:28N 40°29' W 073°60'0 0.0
2014-Dec-21 06:18N 40°29' W 073°60'0 0.0
2014-Dec-21 05:30N 40°29' W 073°60'0 0.0
2014-Dec-21 04:33N 40°29' W 073°60'0 0.0
2014-Dec-21 03:33N 40°29' W 073°60'0 0.0
2014-Dec-21 02:30N 40°29' W 073°60'0 0.0
2014-Dec-21 01:32N 40°29' W 073°60'0 0.0
2014-Dec-21 00:25N 40°29' W 073°60'0 0.0
2014-Dec-20 23:32N 40°29' W 073°60'0 0.0
2014-Dec-20 22:20N 40°29' W 073°60'0 0.0
2014-Dec-20 21:33N 40°29' W 073°60'0 0.0
2014-Dec-20 18:27N 40°29' W 073°60'0 0.0
2014-Dec-20 17:22N 40°29' W 073°60'0 0.0
2014-Dec-20 16:25N 40°29' W 073°60'0 0.0
2014-Dec-20 15:04N 40°29' W 073°60'0 0.0
2014-Dec-20 14:19N 40°29' W 073°60'0 0.0
2014-Dec-20 13:08N 40°29' W 073°60'5 1.2
2014-Dec-20 09:17N 40°25' W 074°02'0 0.0
2014-Dec-20 06:30N 40°25' W 074°02'0 0.0
2014-Dec-20 05:33N 40°25' W 074°02'0 0.0
2014-Dec-20 02:24N 40°25' W 074°02'5 0.8
2014-Dec-19 20:23N 40°29' W 073°60'0 0.0
2014-Dec-19 19:05N 40°29' W 073°60'0 0.0
2014-Dec-19 16:22N 40°29' W 073°60'0 0.0
2014-Dec-19 15:33N 40°29' W 073°60'0 0.0
2014-Dec-19 14:31N 40°29' W 073°60'0 0.1
2014-Dec-19 13:33N 40°29' W 073°60'0 0.1
2014-Dec-19 12:33N 40°29' W 073°60'4 2.2
2014-Dec-19 10:29N 40°25' W 074°02'0 0.0
2014-Dec-18 23:12N 40°25' W 074°02'0 0.0
2014-Dec-18 07:14N 40°25' W 074°02'0 0.0
2014-Dec-18 04:12N 40°25' W 074°02'5 1.5
2014-Dec-18 01:04N 40°29' W 073°60'0 0.0
2014-Dec-17 23:15N 40°29' W 073°60'0 0.1
2014-Dec-17 21:33N 40°29' W 073°60'0 0.0
2014-Dec-17 14:31N 40°29' W 073°60'0 0.0
2014-Dec-17 12:17N 40°29' W 073°60'0 0.0
2014-Dec-17 06:16N 40°29' W 073°60'0 0.0
2014-Dec-17 05:13N 40°29' W 073°60'0 0.0
2014-Dec-17 03:25N 40°29' W 073°60'0 0.0
2014-Dec-17 02:30N 40°29' W 073°60'0 0.0
2014-Dec-17 01:32N 40°29' W 073°60'0 0.0
2014-Dec-17 00:28N 40°29' W 073°60'0 0.0
2014-Dec-16 23:23N 40°29' W 073°60'0 0.0
2014-Dec-16 22:33N 40°29' W 073°60'0 0.0
2014-Dec-16 21:31N 40°29' W 073°60'0 0.0
2014-Dec-16 20:33N 40°29' W 073°60'0 0.0
2014-Dec-16 19:33N 40°29' W 073°60'0 0.0
2014-Dec-16 18:33N 40°29' W 073°60'0 0.0
2014-Dec-16 17:31N 40°29' W 073°60'0 0.0
2014-Dec-16 16:33N 40°29' W 073°60'0 0.0
2014-Dec-16 15:29N 40°29' W 073°60'0 0.0
2014-Dec-16 14:33N 40°29' W 073°60'0 0.0
2014-Dec-16 13:32N 40°29' W 073°60'0 0.0
2014-Dec-16 12:33N 40°29' W 073°60'0 0.0
2014-Dec-16 11:26N 40°29' W 073°60'0 0.0
2014-Dec-16 10:33N 40°29' W 073°60'0 0.0
2014-Dec-16 09:11N 40°29' W 073°60'0 0.0
2014-Dec-16 08:29N 40°29' W 073°60'0 0.0
2014-Dec-16 07:19N 40°29' W 073°60'0 0.0
2014-Dec-16 06:14N 40°29' W 073°60'0 0.0
2014-Dec-16 05:33N 40°29' W 073°60'0 0.0
2014-Dec-16 03:29N 40°29' W 073°60'0 0.0
2014-Dec-16 02:32N 40°29' W 073°60'0 0.0
2014-Dec-16 01:17N 40°29' W 073°60'0 0.0
2014-Dec-16 00:26N 40°29' W 073°60'0 0.0
2014-Dec-15 23:32N 40°29' W 073°60'0 0.0
2014-Dec-15 22:13N 40°29' W 073°60'0 0.0
2014-Dec-15 21:11N 40°29' W 073°60'0 0.0
2014-Dec-15 20:30N 40°29' W 073°60'0 0.0
2014-Dec-15 17:24N 40°29' W 073°60'0 0.0
2014-Dec-15 15:26N 40°29' W 073°60'5 5.7
2014-Dec-15 14:33N 40°34' W 074°02'4 4.5
2014-Dec-15 13:33N 40°38' W 074°04'0 0.0
2014-Dec-15 12:33N 40°38' W 074°04'0 0.3
2014-Dec-15 11:33N 40°38' W 074°04'0 0.0
2014-Dec-15 10:33N 40°38' W 074°04'0 0.0
2014-Dec-15 09:33N 40°38' W 074°04'0 0.0
2014-Dec-15 08:33N 40°38' W 074°04'0 0.0
2014-Dec-15 07:33N 40°38' W 074°04'0 0.0
2014-Dec-15 06:33N 40°38' W 074°04'0 0.0
2014-Dec-15 05:33N 40°38' W 074°04'0 0.0
2014-Dec-15 04:33N 40°38' W 074°04'0 0.0
2014-Dec-15 03:33N 40°38' W 074°04'1 1.3
2014-Dec-15 02:33N 40°37' W 074°03'8 6.0
2014-Dec-15 01:13N 40°29' W 073°60'0 0.1
2014-Dec-15 00:19N 40°29' W 073°60'0 0.0
2014-Dec-14 23:25N 40°29' W 073°60'0 0.0
2014-Dec-14 22:27N 40°29' W 073°60'0 0.0
2014-Dec-14 21:23N 40°29' W 073°60'0 0.0
2014-Dec-14 20:09N 40°29' W 073°60'0 0.0
2014-Dec-14 19:32N 40°29' W 073°60'0 0.0
2014-Dec-14 18:31N 40°29' W 073°60'0 0.0
2014-Dec-14 17:30N 40°29' W 073°60'0 0.0
2014-Dec-14 16:16N 40°29' W 073°60'0 0.0
2014-Dec-14 15:20N 40°29' W 073°60'0 0.0
2014-Dec-14 14:27N 40°29' W 073°60'0 0.0
2014-Dec-14 13:07N 40°29' W 073°60'1 0.8
2014-Dec-14 12:22N 40°29' W 074°01'4 3.7
2014-Dec-14 11:14N 40°25' W 074°02'0 0.0
2014-Dec-14 09:11N 40°25' W 074°02'0 0.0
2014-Dec-14 08:27N 40°25' W 074°02'0 0.0
2014-Dec-14 07:28N 40°25' W 074°02'5 0.4
2014-Dec-13 19:16N 40°29' W 073°60'0 0.0
2014-Dec-13 17:16N 40°29' W 073°60'0 0.0
2014-Dec-13 15:13N 40°29' W 073°60'0 0.0
2014-Dec-13 10:23N 40°29' W 073°60'0 0.0
2014-Dec-13 08:22N 40°29' W 073°60'0 0.0
2014-Dec-13 05:27N 40°29' W 073°60'0 0.0
2014-Dec-13 03:23N 40°29' W 073°60'0 0.0
2014-Dec-13 02:06N 40°29' W 073°60'0 0.0
2014-Dec-13 01:26N 40°29' W 073°60'0 0.0
2014-Dec-13 00:14N 40°29' W 073°60'0 0.0
2014-Dec-12 23:31N 40°29' W 073°60'0 0.0
2014-Dec-12 20:09N 40°29' W 073°60'0 0.0
2014-Dec-12 19:16N 40°29' W 073°60'0 0.0
2014-Dec-12 18:27N 40°29' W 073°60'0 0.0
2014-Dec-12 17:15N 40°29' W 073°60'0 0.0
2014-Dec-12 14:25N 40°29' W 073°60'1 0.3
2014-Dec-12 12:11N 40°29' W 074°01'1 0.0
2014-Dec-11 20:06N 40°29' W 073°60'0 0.0
2014-Dec-11 19:20N 40°29' W 073°60'0 0.0
2014-Dec-11 16:10N 40°29' W 073°60'0 0.0
2014-Dec-11 14:24N 40°29' W 073°60'  

Dump ship's entire track history